Flight Track Log - Related Links

Times and Time Zones

All times are in EDT time to prevent confusion due to time zone crossing. See the DAL268 flight status page for this flight to view local times or setup timezone preferences in your user account.

Time Position Orientation Groundspeed Altitude Reporting Facility
EDT Latitude Longitude Course Direction KTS MPH feet Rate Location/Type
Sun 11:52:24 PM 40.6370 -73.7800 North  Level FlightAware ADS-B
Sun 11:59:00 PM 40.5851 -73.3905 108° East  Level FlightAware Approximate
Mon 12:00:00 AM 40.5649 -73.2142 97° East  Level FlightAware Approximate
Mon 12:01:00 AM 40.5500 -73.0320 90° East  Level FlightAware Approximate
Mon 12:02:00 AM 40.5813 -72.8583 72° East  Level FlightAware Approximate
Mon 12:03:00 AM 40.6333 -72.6891 90° East  Level FlightAware Approximate
Mon 12:10:25 AM 40.6440 -73.7690 217° Southwest 80 92  Level FlightAware ADS-B
Mon 12:10:46 AM 40.6330 -73.7770 209° Southwest 150 173 706 Level FlightAware ADS-B
Mon 12:11:16 AM 40.6130 -73.7920 210° Southwest 167 192 600 1,440 Climbing FlightAware ADS-B
Mon 12:11:36 AM 40.5990 -73.8010 206° Southwest 173 199 1,200 1,231 Climbing FlightAware ADS-B
Mon 12:11:55 AM 40.5850 -73.8100 206° Southwest 194 223 1,400 900 Climbing FlightAware ADS-B
Mon 12:12:16 AM 40.5650 -73.8220 205° Southwest 225 259 1,800 1,200 Climbing FlightAware ADS-B
Mon 12:12:25 AM 40.5560 -73.8230 185° South 232 267 2,000 811 Climbing FlightAware ADS-B
Mon 12:12:53 AM 40.5240 -73.8120 165° South 266 306 2,300 833 Climbing FlightAware ADS-B
Mon 12:13:01 AM 40.5160 -73.8050 146° Southeast 273 314 2,500 1,200 Climbing FlightAware ADS-B
Mon 12:13:13 AM 40.5060 -73.7900 131° Southeast 284 327 2,700 1,200 Climbing FlightAware ADS-B
Mon 12:13:21 AM 40.5000 -73.7770 121° Southeast 290 334 2,900 1,615 Climbing FlightAware ADS-B
Mon 12:13:39 AM 40.4926 -73.7463 108° East 301 346 3,400 1,714 Climbing FlightAware ADS-B
Mon 12:13:42 AM 40.4922 -73.7409 96° East 302 348 3,500 2,000 Climbing FlightAware ADS-B
Mon 12:13:48 AM 40.4922 -73.7299 90° East 304 350 3,700 1,600 Climbing FlightAware ADS-B
Mon 12:13:57 AM 40.4939 -73.7134 82° East 306 352 3,900 2,000 Climbing FlightAware ADS-B
Mon 12:14:12 AM 40.5008 -73.6869 71° East 307 353 4,500 2,069 Climbing FlightAware ADS-B
Mon 12:14:26 AM 40.5099 -73.6634 63° Northeast 310 357 4,900 1,846 Climbing FlightAware ADS-B
Mon 12:14:38 AM 40.5167 -73.6422 67° East 317 365 5,300 1,909 Climbing FlightAware ADS-B
Mon 12:14:48 AM 40.5214 -73.6239 71° East 319 367 5,600 2,250 Climbing FlightAware ADS-B
Mon 12:15:02 AM 40.5260 -73.5994 76° East 319 367 6,200 2,087 Climbing FlightAware ADS-B
Mon 12:15:11 AM 40.5279 -73.5822 82° East 320 368 6,400 1,500 Climbing FlightAware ADS-B
Mon 12:15:18 AM 40.5288 -73.5687 85° East 318 366 6,600 1,500 Climbing FlightAware ADS-B
Mon 12:15:35 AM 40.5303 -73.5337 87° East 321 369 7,000 1,818 Climbing FlightAware ADS-B
Mon 12:15:51 AM 40.5314 -73.5025 87° East 322 371 7,600 2,250 Climbing FlightAware ADS-B
Mon 12:16:07 AM 40.5328 -73.4708 87° East 327 376 8,200 2,063 Climbing FlightAware ADS-B
Mon 12:16:23 AM 40.5345 -73.4391 86° East 329 379 8,700 1,875 Climbing FlightAware ADS-B
Mon 12:16:39 AM 40.5362 -73.4091 86° East 331 381 9,200 2,129 Climbing FlightAware ADS-B
Mon 12:16:54 AM 40.5380 -73.3770 86° East 333 383 9,800 1,565 Climbing FlightAware ADS-B
Mon 12:17:25 AM 40.5417 -73.3127 86° East 350 403 10,400 1,065 Climbing FlightAware ADS-B
Mon 12:17:56 AM 40.5487 -73.2449 82° East 373 429 10,900 968 Climbing FlightAware ADS-B
Mon 12:18:27 AM 40.5578 -73.1731 81° East 395 455 11,400 1,082 Climbing FlightAware ADS-B
Mon 12:18:57 AM 40.5663 -73.0999 81° East 416 479 12,000 1,180 Climbing FlightAware ADS-B
Mon 12:19:28 AM 40.5753 -73.0201 82° East 435 501 12,600 1,714 Climbing FlightAware ADS-B
Mon 12:20:00 AM 40.5848 -72.9357 82° East 438 504 13,800 2,250 Climbing FlightAware ADS-B
Mon 12:20:32 AM 40.5946 -72.8510 81° East 443 510 15,000 2,095 Climbing FlightAware ADS-B
Mon 12:21:03 AM 40.6042 -72.7679 81° East 449 517 16,000 1,935 Climbing FlightAware ADS-B
Mon 12:21:34 AM 40.6137 -72.6836 82° East 454 522 17,000 1,869 Climbing FlightAware ADS-B
Mon 12:22:04 AM 40.6231 -72.6013 81° East 460 529 17,900 1,800 Climbing FlightAware ADS-B
Mon 12:22:34 AM 40.6326 -72.5175 81° East 465 535 18,800 1,672 Climbing FlightAware ADS-B
Mon 12:23:05 AM 40.6422 -72.4304 82° East 471 542 19,600 1,574 Climbing FlightAware ADS-B
Mon 12:23:35 AM 40.6518 -72.3447 82° East 477 549 20,400 1,600 Climbing FlightAware ADS-B
Mon 12:24:05 AM 40.6614 -72.2581 82° East 481 554 21,200 1,475 Climbing FlightAware ADS-B
Mon 12:24:36 AM 40.6712 -72.1678 82° East 487 560 21,900 1,377 Climbing FlightAware ADS-B
Mon 12:25:06 AM 40.6809 -72.0791 82° East 492 566 22,600 1,395 Climbing FlightAware ADS-B
Mon 12:26:02 AM 40.6989 -71.9150 82° East 498 573 23,900 1,235 Climbing FlightAware ADS-B
Mon 12:26:48 AM 40.7120 -71.7910 82° East 503 579 24,700 558 Climbing FlightAware ADS-B
Mon 12:27:28 AM 40.7230 -71.6880 82° East 503 579 24,700  Level FlightAware ADS-B
Mon 12:28:04 AM 40.7330 -71.5950 82° East 503 579 24,700  Level FlightAware ADS-B
Mon 12:28:40 AM 40.7430 -71.5020 82° East 503 579 24,700  Level FlightAware ADS-B
Mon 12:29:14 AM 40.7520 -71.4140 82° East 503 579 24,700 2,970 Level FlightAware ADS-B
Mon 12:29:43 AM 40.7680 -71.2450 83° East 28,600 4,478 Climbing FlightAware ADS-B
Mon 12:30:21 AM 40.7880 -71.1220 78° East 497 572 29,700 1,459 Climbing FlightAware ADS-B
Mon 12:30:57 AM 40.8170 -71.0220 69° East 516 594 30,400 909 Climbing FlightAware ADS-B
Mon 12:31:27 AM 40.8400 -70.9500 67° East 492 566 30,700 667 Climbing FlightAware ADS-B
Mon 12:32:27 AM 40.8920 -70.7900 67° East 490 564 31,400 1,011 Climbing FlightAware ADS-B
Mon 12:33:02 AM 40.9240 -70.6890 67° East 489 563 32,300 730 Climbing FlightAware ADS-B
Mon 12:33:41 AM 40.9550 -70.5980 66° East 489 563 32,300  Level FlightAware ADS-B
Mon 12:34:18 AM 40.9840 -70.5120 66° East 489 563 32,300  Level FlightAware ADS-B
Mon 12:34:54 AM 41.0120 -70.4280 66° East 489 563 32,300  Level FlightAware ADS-B
Mon 12:35:30 AM 41.0400 -70.3450 66° East 489 563 32,300  Level FlightAware ADS-B
Mon 12:36:06 AM 41.0680 -70.2610 66° East 489 563 32,300  Level FlightAware ADS-B
Mon 12:36:42 AM 41.0960 -70.1770 66° East 489 563 32,300 408 Level FlightAware ADS-B
Mon 12:37:49 AM 41.1717 -69.9169 66° East 478 550 33,000 323 Climbing Boston Center
Mon 12:38:52 AM 41.2242 -69.7492 67° East 483 556 33,000  Level Boston Center
Mon 12:39:49 AM 41.2742 -69.5758 69° East 483 556 33,000  Level Boston Center
Mon 12:45:07 AM 41.5510 -68.6860 69° East 33,000  Level FlightAware ADS-B
Mon 12:48:14 AM 41.7090 -68.1560 68° East 482 555 33,000  Level FlightAware ADS-B
Mon 12:48:53 AM 41.7370 -68.0640 68° East 482 555 33,000  Level FlightAware ADS-B
Mon 12:49:29 AM 41.7630 -67.9790 68° East 482 555 33,000  Level FlightAware ADS-B
Mon 12:50:06 AM 41.7890 -67.8920 68° East 482 555 33,000  Level FlightAware ADS-B
Mon 12:50:42 AM 41.8140 -67.8070 68° East 482 555 33,000  Level FlightAware ADS-B
Mon 12:51:18 AM 41.8400 -67.7220 68° East 482 555 33,000  Level FlightAware ADS-B
Mon 12:51:54 AM 41.8660 -67.6370 68° East 482 555 33,000  Level FlightAware ADS-B
Mon 12:52:30 AM 41.8910 -67.5520 68° East 482 555 33,000  Level FlightAware ADS-B
Mon 12:53:08 AM 41.9430 -67.3500 71° East 480 552 33,000  Level FlightAware ADS-B
Mon 12:53:46 AM 41.9690 -67.2600 69° East 480 552 33,000  Level FlightAware ADS-B
Mon 12:54:22 AM 41.9930 -67.1750 69° East 480 552 33,000  Level FlightAware ADS-B
Mon 12:54:58 AM 42.0180 -67.0890 69° East 480 552 33,000  Level FlightAware ADS-B
Mon 12:55:34 AM 42.0420 -67.0040 69° East 480 552 33,000  Level FlightAware ADS-B
Mon 12:56:04 AM 42.0830 -66.8580 69° East 33,000  Level FlightAware ADS-B
Mon 12:57:31 AM 42.1510 -66.6150 69° East 33,000  Level FlightAware ADS-B
Mon 12:58:22 AM 42.1880 -66.4800 70° East 479 551 33,000  Level FlightAware ADS-B
Mon 12:58:59 AM 42.2110 -66.3920 71° East 479 551 33,000  Level FlightAware ADS-B
Mon 01:00:05 AM 42.2700 -66.1820 69° East 479 551 33,000  Level FlightAware ADS-B
Mon 01:00:44 AM 42.2970 -66.0830 70° East 477 549 33,000  Level FlightAware ADS-B
Mon 01:01:20 AM 42.3200 -65.9970 70° East 477 549 33,000  Level FlightAware ADS-B
Mon 01:01:59 AM 42.3550 -65.8690 70° East 475 547 33,000  Level FlightAware ADS-B
Mon 01:02:34 AM 42.3820 -65.7690 70° East 474 545 33,000  Level FlightAware ADS-B
Mon 01:03:20 AM 42.4140 -65.6490 70° East 473 544 33,000  Level FlightAware ADS-B
Mon 01:03:58 AM 42.4450 -65.5330 70° East 472 543 33,000  Level FlightAware ADS-B
Mon 01:04:43 AM 42.4790 -65.4060 70° East 470 541 33,000  Level FlightAware ADS-B
Mon 01:05:13 AM 42.5010 -65.3230 70° East 470 541 33,000  Level FlightAware ADS-B
Mon 01:05:48 AM 42.5250 -65.2280 71° East 470 541 33,000  Level FlightAware ADS-B
Mon 01:06:28 AM 42.5530 -65.1230 70° East 470 541 33,000  Level FlightAware ADS-B
Mon 01:06:58 AM 42.5770 -65.0310 70° East 470 541 33,000  Level FlightAware ADS-B
Mon 01:07:33 AM 42.6020 -64.9370 70° East 470 541 33,000  Level FlightAware ADS-B
Mon 01:08:13 AM 42.6270 -64.8380 71° East 470 541 33,000  Level FlightAware ADS-B
Mon 01:08:58 AM 42.6640 -64.6940 71° East 471 542 33,000  Level FlightAware ADS-B
Mon 01:09:44 AM 42.6940 -64.5770 71° East 471 542 33,000  Level FlightAware ADS-B
Mon 01:10:14 AM 42.7170 -64.4880 71° East 471 542 33,000  Level FlightAware ADS-B
Mon 01:10:49 AM 42.7430 -64.3870 71° East 471 542 33,000  Level FlightAware ADS-B
Mon 01:11:26 AM 42.7650 -64.2980 71° East 470 541 33,000  Level FlightAware ADS-B
Mon 01:12:04 AM 42.7950 -64.1780 71° East 470 541 33,000  Level FlightAware ADS-B
Mon 01:12:44 AM 42.8220 -64.0690 71° East 469 540 33,000  Level FlightAware ADS-B
Mon 01:13:24 AM 42.8510 -63.9550 71° East 468 539 33,000  Level FlightAware ADS-B
Mon 01:13:59 AM 42.8730 -63.8630 72° East 467 537 33,000  Level FlightAware ADS-B
Mon 01:14:43 AM 42.9040 -63.7380 71° East 465 535 33,000  Level FlightAware ADS-B
Mon 01:15:17 AM 42.9280 -63.6440 71° East 465 535 33,000  Level FlightAware ADS-B
Mon 01:15:52 AM 42.9520 -63.5440 72° East 464 534 33,000  Level FlightAware ADS-B
Mon 01:16:33 AM 42.9770 -63.4410 72° East 463 533 33,000  Level FlightAware ADS-B
Mon 01:17:12 AM 43.0020 -63.3390 71° East 463 533 33,000  Level FlightAware ADS-B
Mon 01:17:57 AM 43.0340 -63.2030 72° East 461 531 33,000  Level FlightAware ADS-B
Mon 01:18:45 AM 43.0620 -63.0870 72° East 461 531 33,000  Level FlightAware ADS-B
Mon 01:19:31 AM 43.0970 -62.9440 71° East 459 528 33,000  Level FlightAware ADS-B
Mon 01:20:21 AM 43.1280 -62.8150 72° East 459 528 33,000  Level FlightAware ADS-B
Mon 01:20:53 AM 43.1480 -62.7290 72° East 456 525 33,000  Level FlightAware ADS-B
Mon 01:21:23 AM 43.1690 -62.6360 73° East 455 524 33,000  Level FlightAware ADS-B
Mon 01:22:00 AM 43.1930 -62.5380 71° East 454 522 33,000  Level FlightAware ADS-B
Mon 01:22:40 AM 43.2200 -62.4200 73° East 453 521 33,000  Level FlightAware ADS-B
Mon 01:23:20 AM 43.2450 -62.3110 72° East 453 521 33,000  Level FlightAware ADS-B
Mon 01:23:55 AM 43.2680 -62.2150 72° East 452 520 33,000  Level FlightAware ADS-B
Mon 01:24:40 AM 43.2960 -62.0920 73° East 452 520 33,000  Level FlightAware ADS-B
Mon 01:25:10 AM 43.3110 -62.0240 73° East 451 519 33,000  Level FlightAware ADS-B
Mon 01:25:54 AM 43.3400 -61.8960 73° East 452 520 33,000  Level FlightAware ADS-B
Mon 01:26:29 AM 43.3630 -61.7940 73° East 453 521 33,000  Level FlightAware ADS-B
Mon 01:27:11 AM 43.3850 -61.7010 72° East 453 521 33,000  Level FlightAware ADS-B
Mon 01:27:55 AM 43.4140 -61.5680 73° East 455 524 33,000  Level FlightAware ADS-B
Mon 01:28:24 AM 43.4340 -61.4770 73° East 457 526 33,000  Level FlightAware ADS-B
Mon 01:29:04 AM 43.4570 -61.3770 72° East 459 528 33,000  Level FlightAware ADS-B
Mon 01:29:43 AM 43.4770 -61.2840 73° East 459 528 33,000  Level FlightAware ADS-B
Mon 01:30:35 AM 43.5120 -61.1270 73° East 462 532 33,000  Level FlightAware ADS-B
Mon 01:31:08 AM 43.5320 -61.0350 73° East 465 535 33,000  Level FlightAware ADS-B
Mon 01:32:04 AM 43.5670 -60.8750 73° East 465 535 33,000  Level FlightAware ADS-B
Mon 01:32:40 AM 43.5860 -60.7880 73° East 465 535 33,000  Level FlightAware ADS-B
Mon 01:33:17 AM 43.6060 -60.6990 73° East 465 535 33,000  Level FlightAware ADS-B
Mon 01:33:53 AM 43.6250 -60.6120 73° East 465 535 33,000  Level FlightAware ADS-B
Mon 01:34:29 AM 43.6440 -60.5250 73° East 465 535 33,000  Level FlightAware ADS-B
Mon 01:35:05 AM 43.6840 -60.3220 75° East 477 549 33,000  Level FlightAware ADS-B
Mon 01:36:01 AM 43.7170 -60.1730 73° East 478 550 33,000  Level FlightAware ADS-B
Mon 01:36:37 AM 43.7370 -60.0830 73° East 478 550 33,000  Level FlightAware ADS-B
Mon 01:37:13 AM 43.7560 -59.9930 74° East 478 550 33,000  Level FlightAware ADS-B
Mon 01:37:49 AM 43.7760 -59.9040 73° East 478 550 33,000  Level FlightAware ADS-B
Mon 01:38:25 AM 43.7960 -59.8140 73° East 478 550 33,000  Level FlightAware ADS-B
Mon 01:39:01 AM 43.8160 -59.7240 73° East 478 550 33,000  Level FlightAware ADS-B
Mon 01:39:37 AM 43.8360 -59.6350 73° East 478 550 33,000  Level FlightAware ADS-B
Mon 01:40:13 AM 43.8550 -59.5450 74° East 478 550 33,000  Level FlightAware ADS-B
Mon 01:40:50 AM 43.8760 -59.4530 72° East 478 550 33,000  Level FlightAware ADS-B
Mon 01:41:26 AM 43.8950 -59.3630 74° East 478 550 33,000  Level FlightAware ADS-B
Mon 01:42:02 AM 43.9150 -59.2730 73° East 478 550 33,000  Level FlightAware ADS-B
Mon 01:42:38 AM 43.9350 -59.1830 73° East 478 550 33,000  Level FlightAware ADS-B
Mon 01:43:15 AM 43.9550 -59.0910 73° East 478 550 33,000  Level FlightAware ADS-B
Mon 01:43:51 AM 43.9750 -59.0010 73° East 478 550 33,000  Level FlightAware ADS-B
Mon 01:44:47 AM 44.0340 -58.5940 78° East 502 578 33,000  Level FlightAware ADS-B
Mon 01:45:24 AM 44.0550 -58.4970 73° East 502 578 33,000  Level FlightAware ADS-B
Mon 01:46:00 AM 44.0740 -58.4010 75° East 502 578 33,000  Level FlightAware ADS-B
Mon 01:46:34 AM 44.1020 -58.2380 76° East 514 592 33,000  Level FlightAware ADS-B
Mon 01:47:16 AM 44.1240 -58.1190 76° East 514 592 33,000  Level FlightAware ADS-B
Mon 01:47:52 AM 44.1430 -58.0210 75° East 514 592 33,000  Level FlightAware ADS-B
Mon 01:48:28 AM 44.1620 -57.9240 75° East 514 592 33,000  Level FlightAware ADS-B
Mon 01:49:04 AM 44.1810 -57.8260 75° East 514 592 33,000  Level FlightAware ADS-B
Mon 01:49:40 AM 44.1990 -57.7270 76° East 514 592 33,000  Level FlightAware ADS-B
Mon 01:50:16 AM 44.2360 -57.5160 76° East 531 611 33,000  Level FlightAware ADS-B
Mon 01:50:56 AM 44.2580 -57.4030 75° East 531 611 33,000  Level FlightAware ADS-B
Mon 01:51:34 AM 44.2830 -57.2550 77° East 538 619 33,000  Level FlightAware ADS-B
Mon 01:52:26 AM 44.3130 -57.0890 76° East 542 624 33,000  Level FlightAware ADS-B
Mon 01:53:02 AM 44.3310 -56.9850 76° East 542 624 33,000  Level FlightAware ADS-B
Mon 01:53:38 AM 44.3500 -56.8810 76° East 542 624 33,000  Level FlightAware ADS-B
Mon 01:54:14 AM 44.3680 -56.7770 76° East 542 624 33,000  Level FlightAware ADS-B
Mon 01:54:51 AM 44.3870 -56.6700 76° East 542 624 33,000  Level FlightAware ADS-B
Mon 01:55:27 AM 44.4060 -56.5650 76° East 542 624 33,000  Level FlightAware ADS-B
Mon 01:56:03 AM 44.4240 -56.4610 76° East 542 624 33,000  Level FlightAware ADS-B
Mon 01:56:39 AM 44.4430 -56.3570 76° East 542 624 33,000  Level FlightAware ADS-B
Mon 01:57:15 AM 44.4620 -56.2530 76° East 542 624 33,000  Level FlightAware ADS-B
Mon 01:57:51 AM 44.4800 -56.1480 76° East 542 624 33,000  Level FlightAware ADS-B
Mon 01:58:28 AM 44.4990 -56.0410 76° East 542 624 33,000  Level FlightAware ADS-B
Mon 01:59:04 AM 44.5180 -55.9370 76° East 542 624 33,000  Level FlightAware ADS-B
Mon 01:59:40 AM 44.5360 -55.8320 76° East 542 624 33,000  Level FlightAware ADS-B
Mon 02:00:16 AM 44.5550 -55.7280 76° East 542 624 33,000  Level FlightAware ADS-B
Mon 02:00:52 AM 44.5730 -55.6230 76° East 542 624 33,000  Level FlightAware ADS-B
Mon 02:01:28 AM 44.5920 -55.5190 76° East 542 624 33,000  Level FlightAware ADS-B
Mon 02:02:05 AM 44.5667 -54.9667 76° East 580 667 33,000  Level Moncton Center
Mon 02:03:05 AM 44.6000 -54.7500 78° East 580 667 33,000  Level Moncton Center
Mon 02:04:05 AM 44.6167 -54.5167 84° East 590 679 33,000  Level Moncton Center
Mon 02:05:05 AM 44.6500 -54.3000 78° East 570 656 33,000  Level Moncton Center
Mon 02:06:05 AM 44.6667 -54.0833 84° East 580 667 33,000  Level Moncton Center
Mon 02:07:05 AM 44.6833 -53.8500 84° East 570 656 33,000  Level Moncton Center
Mon 02:08:05 AM 44.7000 -53.6333 84° East 560 644 33,000  Level Moncton Center
Mon 02:09:05 AM 44.7333 -53.4167 78° East 560 644 33,000  Level Moncton Center
Mon 02:10:05 AM 44.7333 -53.2000 90° East 560 644 33,000  Level Moncton Center
Mon 02:11:05 AM 44.7667 -52.9667 79° East 560 644 33,000  Level Moncton Center
Mon 02:12:05 AM 44.7833 -52.7667 83° East 560 644 33,000  Level Moncton Center
Mon 02:13:05 AM 44.8000 -52.5333 84° East 560 644 33,000  Level Moncton Center
Mon 02:14:05 AM 44.8167 -52.3167 84° East 560 644 33,000  Level Moncton Center
Mon 02:15:05 AM 44.8333 -52.1333 83° East 550 633 33,000  Level Moncton Center
Mon 02:16:05 AM 44.8500 -51.9167 84° East 550 633 33,000  Level Moncton Center
Mon 02:17:05 AM 44.8667 -51.7000 84° East 550 633 33,000  Level Moncton Center
Mon 02:18:05 AM 44.8833 -51.4833 84° East 550 633 33,000  Level Moncton Center
Mon 02:19:05 AM 44.9000 -51.2667 84° East 550 633 33,000  Level Moncton Center
Mon 02:20:04 AM 44.9167 -51.0500 84° East 550 633 33,000  Level Gander Center
Mon 02:21:04 AM 44.9167 -50.8333 90° East 540 621 33,000  Level Gander Center
Mon 02:22:04 AM 44.9333 -50.6500 83° East 550 633 33,000  Level Gander Center
Mon 02:23:04 AM 44.9500 -50.4000 85° East 540 621 33,000  Level Gander Center
Mon 02:24:04 AM 44.9667 -50.2167 83° East 550 633 33,000  Level Gander Center
Mon 02:25:04 AM 44.9833 -50.0000 84° East 560 644 33,000  Level Gander Center
Mon 02:26:04 AM 45.0167 -49.7667 78° East 550 633 33,000  Level Gander Center
Mon 02:27:04 AM 45.0667 -49.6000 67° East 550 633 33,000  Level Gander Center
Mon 02:28:04 AM 45.1167 -49.3667 73° East 570 656 33,000  Level Gander Center
Mon 02:29:04 AM 45.1667 -49.1667 70° East 590 679 33,000  Level Gander Center
Mon 02:30:04 AM 45.2333 -48.9667 65° Northeast 550 633 33,000  Level Gander Center
Mon 02:31:04 AM 45.2667 -48.7667 77° East 550 633 33,000  Level Gander Center
Mon 02:32:04 AM 45.3167 -48.5667 70° East 550 633 33,000  Level Gander Center
Mon 02:33:04 AM 45.3667 -48.3333 73° East 560 644 33,000  Level Gander Center
Mon 02:34:04 AM 45.4167 -48.1333 70° East 560 644 33,000  Level Gander Center
Mon 02:35:04 AM 45.4500 -47.9333 77° East 550 633 33,000  Level Gander Center
Mon 02:36:04 AM 45.5167 -47.7167 66° East 550 633 33,000  Level Gander Center
Mon 02:37:04 AM 45.5667 -47.4833 73° East 570 656 33,000  Level Gander Center
Mon 02:39:00 AM 45.6425 -47.1731 72° East  Level FlightAware Approximate
Mon 02:46:00 AM 45.9406 -45.8098 72° East  Level FlightAware Approximate
Mon 02:47:00 AM 45.9818 -45.6139 73° East  Level FlightAware Approximate
Mon 02:48:00 AM 46.0228 -45.4177 73° East  Level FlightAware Approximate
Mon 02:49:00 AM 46.0634 -45.2212 73° East  Level FlightAware Approximate
Mon 02:50:00 AM 46.1036 -45.0244 73° East  Level FlightAware Approximate
Mon 02:51:00 AM 46.1435 -44.8273 74° East  Level FlightAware Approximate
Mon 02:52:00 AM 46.1831 -44.6299 74° East  Level FlightAware Approximate
Mon 02:53:00 AM 46.2223 -44.4323 74° East  Level FlightAware Approximate
Mon 02:54:00 AM 46.2612 -44.2344 74° East  Level FlightAware Approximate
Mon 02:55:00 AM 46.2998 -44.0362 74° East  Level FlightAware Approximate
Mon 02:56:00 AM 46.3380 -43.8377 74° East  Level FlightAware Approximate
Mon 02:57:00 AM 46.3758 -43.6389 74° East  Level FlightAware Approximate
Mon 02:58:00 AM 46.4133 -43.4398 75° East  Level FlightAware Approximate
Mon 02:59:00 AM 46.4505 -43.2405 75° East  Level FlightAware Approximate
Mon 03:00:00 AM 46.4874 -43.0410 75° East  Level FlightAware Approximate
Mon 03:01:00 AM 46.5238 -42.8411 75° East  Level FlightAware Approximate
Mon 03:02:00 AM 46.5600 -42.6410 75° East  Level FlightAware Approximate
Mon 03:03:00 AM 46.5957 -42.4406 75° East  Level FlightAware Approximate
Mon 03:04:00 AM 46.6312 -42.2399 76° East  Level FlightAware Approximate
Mon 03:05:00 AM 46.6662 -42.0390 76° East  Level FlightAware Approximate
Mon 03:06:00 AM 46.7010 -41.8379 76° East  Level FlightAware Approximate
Mon 03:07:00 AM 46.7354 -41.6364 76° East  Level FlightAware Approximate
Mon 03:08:00 AM 46.7694 -41.4347 76° East  Level FlightAware Approximate
Mon 03:09:00 AM 46.8030 -41.2328 76° East  Level FlightAware Approximate
Mon 03:10:00 AM 46.8363 -41.0306 76° East  Level FlightAware Approximate
Mon 03:11:00 AM 46.8693 -40.8282 77° East  Level FlightAware Approximate
Mon 03:12:00 AM 46.9019 -40.6255 77° East  Level FlightAware Approximate
Mon 03:13:00 AM 46.9342 -40.4226 77° East  Level FlightAware Approximate
Mon 03:14:00 AM 46.9660 -40.2194 77° East  Level FlightAware Approximate
Mon 03:15:00 AM 46.9978 -40.0141 77° East  Level FlightAware Approximate
Mon 03:16:00 AM 47.0084 -39.8043 86° East  Level FlightAware Approximate
Mon 03:17:00 AM 47.0170 -39.5941 86° East  Level FlightAware Approximate
Mon 03:18:00 AM 47.0252 -39.3838 87° East  Level FlightAware Approximate
Mon 03:19:00 AM 47.0331 -39.1735 87° East  Level FlightAware Approximate
Mon 03:20:00 AM 47.0405 -38.9631 87° East  Level FlightAware Approximate
Mon 03:21:00 AM 47.0476 -38.7527 87° East  Level FlightAware Approximate
Mon 03:22:00 AM 47.0543 -38.5422 87° East  Level FlightAware Approximate
Mon 03:23:00 AM 47.0606 -38.3316 87° East  Level FlightAware Approximate
Mon 03:24:00 AM 47.0665 -38.1210 88° East  Level FlightAware Approximate
Mon 03:25:00 AM 47.0721 -37.9104 88° East  Level FlightAware Approximate
Mon 03:26:00 AM 47.0772 -37.6997 88° East  Level FlightAware Approximate
Mon 03:27:00 AM 47.0820 -37.4889 88° East  Level FlightAware Approximate
Mon 03:28:00 AM 47.0863 -37.2782 88° East  Level FlightAware Approximate
Mon 03:29:00 AM 47.0903 -37.0674 88° East  Level FlightAware Approximate
Mon 03:30:00 AM 47.0939 -36.8565 88° East  Level FlightAware Approximate
Mon 03:31:00 AM 47.0971 -36.6457 89° East  Level FlightAware Approximate
Mon 03:32:00 AM 47.1000 -36.4348 89° East  Level FlightAware Approximate
Mon 03:33:00 AM 47.1024 -36.2239 89° East  Level FlightAware Approximate
Mon 03:34:00 AM 47.1045 -36.0130 89° East  Level FlightAware Approximate
Mon 03:35:00 AM 47.1061 -35.8020 89° East  Level FlightAware Approximate
Mon 03:36:00 AM 47.1074 -35.5911 89° East  Level FlightAware Approximate
Mon 03:37:00 AM 47.1083 -35.3801 90° East  Level FlightAware Approximate
Mon 03:38:00 AM 47.1088 -35.1692 90° East  Level FlightAware Approximate
Mon 03:39:00 AM 47.1089 -34.9582 90° East  Level FlightAware Approximate
Mon 03:40:00 AM 47.1087 -34.7472 90° East  Level FlightAware Approximate
Mon 03:41:00 AM 47.1080 -34.5363 90° East  Level FlightAware Approximate
Mon 03:42:00 AM 47.1070 -34.3253 90° East  Level FlightAware Approximate
Mon 03:43:00 AM 47.1055 -34.1144 90° East  Level FlightAware Approximate
Mon 03:44:00 AM 47.1037 -33.9035 91° East  Level FlightAware Approximate
Mon 03:45:00 AM 47.1015 -33.6926 91° East  Level FlightAware Approximate
Mon 03:46:00 AM 47.0989 -33.4817 91° East  Level FlightAware Approximate
Mon 03:47:00 AM 47.0959 -33.2708 91° East  Level FlightAware Approximate
Mon 03:48:00 AM 47.0926 -33.0600 91° East  Level FlightAware Approximate
Mon 03:49:00 AM 47.0888 -32.8491 91° East  Level FlightAware Approximate
Mon 03:50:00 AM 47.0847 -32.6383 92° East  Level FlightAware Approximate
Mon 03:51:00 AM 47.0801 -32.4276 92° East  Level FlightAware Approximate
Mon 03:52:00 AM 47.0752 -32.2169 92° East  Level FlightAware Approximate
Mon 03:53:00 AM 47.0699 -32.0062 92° East  Level FlightAware Approximate
Mon 03:54:00 AM 47.0642 -31.7956 92° East  Level FlightAware Approximate
Mon 03:55:00 AM 47.0582 -31.5850 92° East  Level FlightAware Approximate
Mon 03:56:00 AM 47.0517 -31.3744 93° East  Level FlightAware Approximate
Mon 03:57:00 AM 47.0448 -31.1639 93° East  Level FlightAware Approximate
Mon 03:58:00 AM 47.0376 -30.9535 93° East  Level FlightAware Approximate
Mon 03:59:00 AM 47.0300 -30.7432 93° East  Level FlightAware Approximate
Mon 04:00:00 AM 47.0220 -30.5328 93° East  Level FlightAware Approximate
Mon 04:01:00 AM 47.0136 -30.3226 93° East  Level FlightAware Approximate
Mon 04:02:00 AM 47.0048 -30.1124 93° East  Level FlightAware Approximate
Mon 04:03:00 AM 46.9944 -29.9024 95° East  Level FlightAware Approximate
Mon 04:04:00 AM 46.9822 -29.6927 95° East  Level FlightAware Approximate
Mon 04:05:00 AM 46.9695 -29.4831 95° East  Level FlightAware Approximate
Mon 04:06:00 AM 46.9565 -29.2739 95° East  Level FlightAware Approximate
Mon 04:07:00 AM 46.9431 -29.0649 95° East  Level FlightAware Approximate
Mon 04:08:00 AM 46.9293 -28.8559 95° East  Level FlightAware Approximate
Mon 04:09:00 AM 46.9152 -28.6471 96° East  Level FlightAware Approximate
Mon 04:10:00 AM 46.9006 -28.4384 96° East  Level FlightAware Approximate
Mon 04:11:00 AM 46.8857 -28.2297 96° East  Level FlightAware Approximate
Mon 04:12:00 AM 46.8704 -28.0212 96° East  Level FlightAware Approximate
Mon 04:13:00 AM 46.8548 -27.8129 96° East  Level FlightAware Approximate
Mon 04:14:00 AM 46.8387 -27.6046 96° East  Level FlightAware Approximate
Mon 04:15:00 AM 46.8223 -27.3965 97° East  Level FlightAware Approximate
Mon 04:16:00 AM 46.8055 -27.1885 97° East  Level FlightAware Approximate
Mon 04:17:00 AM 46.7883 -26.9806 97° East  Level FlightAware Approximate
Mon 04:18:00 AM 46.7707 -26.7729 97° East  Level FlightAware Approximate
Mon 04:19:00 AM 46.7528 -26.5653 97° East  Level FlightAware Approximate
Mon 04:20:00 AM 46.7345 -26.3578 97° East  Level FlightAware Approximate
Mon 04:21:00 AM 46.7158 -26.1505 97° East  Level FlightAware Approximate
Mon 04:22:00 AM 46.6968 -25.9433 98° East  Level FlightAware Approximate
Mon 04:23:00 AM 46.6773 -25.7363 98° East  Level FlightAware Approximate
Mon 04:24:00 AM 46.6575 -25.5294 98° East  Level FlightAware Approximate
Mon 04:25:00 AM 46.6374 -25.3227 98° East  Level FlightAware Approximate
Mon 04:26:00 AM 46.6168 -25.1162 98° East  Level FlightAware Approximate
Mon 04:27:00 AM 46.5959 -24.9098 98° East  Level FlightAware Approximate
Mon 04:28:00 AM 46.5748 -24.7035 98° East  Level FlightAware Approximate
Mon 04:29:00 AM 46.5534 -24.4973 99° East  Level FlightAware Approximate
Mon 04:30:00 AM 46.5315 -24.2914 99° East  Level FlightAware Approximate
Mon 04:31:00 AM 46.5093 -24.0856 99° East  Level FlightAware Approximate
Mon 04:32:00 AM 46.4867 -23.8800 99° East  Level FlightAware Approximate
Mon 04:33:00 AM 46.4639 -23.6745 99° East  Level FlightAware Approximate
Mon 04:34:00 AM 46.4412 -23.4691 99° East  Level FlightAware Approximate
Mon 04:35:00 AM 46.4182 -23.2638 99° East  Level FlightAware Approximate
Mon 04:36:00 AM 46.3949 -23.0587 99° East  Level FlightAware Approximate
Mon 04:37:00 AM 46.3711 -22.8538 99° East  Level FlightAware Approximate
Mon 04:38:00 AM 46.3470 -22.6490 100° East  Level FlightAware Approximate
Mon 04:39:00 AM 46.3226 -22.4445 100° East  Level FlightAware Approximate
Mon 04:40:00 AM 46.2977 -22.2401 100° East  Level FlightAware Approximate
Mon 04:41:00 AM 46.2725 -22.0359 100° East  Level FlightAware Approximate
Mon 04:42:00 AM 46.2470 -21.8319 100° East  Level FlightAware Approximate
Mon 04:43:00 AM 46.2211 -21.6282 100° East  Level FlightAware Approximate
Mon 04:44:00 AM 46.1948 -21.4245 100° East  Level FlightAware Approximate
Mon 04:45:00 AM 46.1681 -21.2211 101° East  Level FlightAware Approximate
Mon 04:46:00 AM 46.1411 -21.0179 101° East  Level FlightAware Approximate
Mon 04:47:00 AM 46.1138 -20.8149 101° East  Level FlightAware Approximate
Mon 04:48:00 AM 46.0860 -20.6121 101° East  Level FlightAware Approximate
Mon 04:49:00 AM 46.0579 -20.4095 101° East  Level FlightAware Approximate
Mon 04:50:00 AM 46.0295 -20.2071 101° East  Level FlightAware Approximate
Mon 04:51:00 AM 46.0007 -20.0049 102° East  Level FlightAware Approximate
Mon 04:52:00 AM 45.9650 -19.8062 104° East  Level FlightAware Approximate
Mon 04:53:00 AM 45.9287 -19.6068 105° East  Level FlightAware Approximate
Mon 04:54:00 AM 45.8919 -19.4077 105° East  Level FlightAware Approximate
Mon 04:55:00 AM 45.8549 -19.2088 105° East  Level FlightAware Approximate
Mon 04:56:00 AM 45.8175 -19.0102 105° East  Level FlightAware Approximate
Mon 04:57:00 AM 45.7797 -18.8118 105° East  Level FlightAware Approximate
Mon 04:58:00 AM 45.7416 -18.6138 105° East  Level FlightAware Approximate
Mon 04:59:00 AM 45.7032 -18.4160 105° East  Level FlightAware Approximate
Mon 05:00:00 AM 45.6645 -18.2185 106° East  Level FlightAware Approximate
Mon 05:01:00 AM 45.6253 -18.0212 106° East  Level FlightAware Approximate
Mon 05:02:00 AM 45.5859 -17.8242 106° East  Level FlightAware Approximate
Mon 05:03:00 AM 45.5461 -17.6275 106° East  Level FlightAware Approximate
Mon 05:04:00 AM 45.5060 -17.4311 106° East  Level FlightAware Approximate
Mon 05:05:00 AM 45.4658 -17.2349 106° East  Level FlightAware Approximate
Mon 05:06:00 AM 45.4253 -17.0389 106° East  Level FlightAware Approximate
Mon 05:07:00 AM 45.3844 -16.8432 107° East  Level FlightAware Approximate
Mon 05:08:00 AM 45.3431 -16.6478 107° East  Level FlightAware Approximate
Mon 05:09:00 AM 45.3016 -16.4527 107° East  Level FlightAware Approximate
Mon 05:10:00 AM 45.2597 -16.2579 107° East  Level FlightAware Approximate
Mon 05:11:00 AM 45.2175 -16.0634 107° East  Level FlightAware Approximate
Mon 05:12:00 AM 45.1749 -15.8692 107° East  Level FlightAware Approximate
Mon 05:13:00 AM 45.1320 -15.6752 107° East  Level FlightAware Approximate
Mon 05:14:00 AM 45.0888 -15.4816 107° East  Level FlightAware Approximate
Mon 05:15:00 AM 45.0453 -15.2882 108° East  Level FlightAware Approximate
Mon 05:16:00 AM 45.0014 -15.0951 108° East  Level FlightAware Approximate
Mon 05:17:00 AM 44.9573 -14.9024 108° East  Level FlightAware Approximate
Mon 05:18:00 AM 44.9128 -14.7099 108° East  Level FlightAware Approximate
Mon 05:19:00 AM 44.8679 -14.5177 108° East  Level FlightAware Approximate
Mon 05:20:00 AM 44.8228 -14.3258 108° East  Level FlightAware Approximate
Mon 05:21:00 AM 44.7773 -14.1343 108° East  Level FlightAware Approximate
Mon 05:22:00 AM 44.7315 -13.9430 109° East  Level FlightAware Approximate
Mon 05:23:00 AM 44.6854 -13.7520 109° East  Level FlightAware Approximate
Mon 05:24:00 AM 44.6390 -13.5614 109° East  Level FlightAware Approximate
Mon 05:25:00 AM 44.5922 -13.3710 109° East  Level FlightAware Approximate
Mon 05:26:00 AM 44.5453 -13.1813 109° East  Level FlightAware Approximate
Mon 05:27:00 AM 44.4975 -12.9922 114° Southeast  Level FlightAware Approximate
Mon 05:28:00 AM 44.4393 -12.8090 114° Southeast  Level FlightAware Approximate
Mon 05:28:00 AM 44.2860 -12.3310 114° Southeast 518 596 33,000  Level FlightAware ADS-B
Mon 05:28:35 AM 44.2540 -12.2310 114° Southeast 515 593 33,800 723 Climbing FlightAware ADS-B
Mon 05:29:23 AM 44.2100 -12.0920 114° Southeast 516 594 34,000 141 Climbing FlightAware ADS-B
Mon 05:30:00 AM 44.1680 -11.9690 115° Southeast 512 589 34,000  Level FlightAware ADS-B
Mon 05:30:35 AM 44.1340 -11.8650 114° Southeast 510 587 34,000  Level FlightAware ADS-B
Mon 05:31:10 AM 44.1000 -11.7600 114° Southeast 510 587 34,000  Level FlightAware ADS-B
Mon 05:31:45 AM 44.0650 -11.6560 115° Southeast 510 587 34,000  Level FlightAware ADS-B
Mon 05:32:20 AM 44.0310 -11.5520 114° Southeast 511 588 34,000  Level FlightAware ADS-B
Mon 05:32:55 AM 43.9960 -11.4480 115° Southeast 512 589 34,000  Level FlightAware ADS-B
Mon 05:33:29 AM 43.9630 -11.3500 115° Southeast 511 588 34,000  Level FlightAware ADS-B
Mon 05:34:08 AM 43.9230 -11.2310 115° Southeast 510 587 34,000  Level FlightAware ADS-B
Mon 05:34:38 AM 43.8930 -11.1420 115° Southeast 510 587 34,000  Level FlightAware ADS-B
Mon 05:35:13 AM 43.8580 -11.0390 115° Southeast 510 587 34,000  Level FlightAware ADS-B
Mon 05:35:53 AM 43.8180 -10.9210 115° Southeast 510 587 34,000  Level FlightAware ADS-B
Mon 05:36:23 AM 43.7880 -10.8330 115° Southeast 509 586 34,000  Level FlightAware ADS-B
Mon 05:37:00 AM 43.7520 -10.7300 116° Southeast 509 586 34,000  Level FlightAware ADS-B
Mon 05:37:33 AM 43.7170 -10.6270 115° Southeast 508 585 34,000  Level FlightAware ADS-B
Mon 05:38:08 AM 43.6820 -10.5250 115° Southeast 508 585 34,000  Level FlightAware ADS-B
Mon 05:38:43 AM 43.6460 -10.4220 116° Southeast 508 585 34,000  Level FlightAware ADS-B
Mon 05:39:18 AM 43.6110 -10.3200 115° Southeast 509 586 34,000  Level FlightAware ADS-B
Mon 05:39:53 AM 43.5750 -10.2180 116° Southeast 509 586 34,000  Level FlightAware ADS-B
Mon 05:40:28 AM 43.5390 -10.1150 116° Southeast 510 587 34,000  Level FlightAware ADS-B
Mon 05:41:03 AM 43.5030 -10.0130 116° Southeast 512 589 34,000  Level FlightAware ADS-B
Mon 05:41:38 AM 43.4670 -9.9100 116° Southeast 512 589 34,000  Level FlightAware ADS-B
Mon 05:42:18 AM 43.4250 -9.7930 116° Southeast 512 589 34,000  Level FlightAware ADS-B
Mon 05:42:48 AM 43.3940 -9.7060 116° Southeast 513 590 34,000  Level FlightAware ADS-B
Mon 05:43:35 AM 43.3450 -9.5680 116° Southeast 512 589 34,000  Level FlightAware ADS-B
Mon 05:44:05 AM 43.3140 -9.4810 116° Southeast 512 589 34,000  Level FlightAware ADS-B
Mon 05:44:40 AM 43.2770 -9.3790 116° Southeast 513 590 34,000  Level FlightAware ADS-B
Mon 05:45:15 AM 43.2400 -9.2770 116° Southeast 514 592 34,000  Level FlightAware ADS-B
Mon 05:45:55 AM 43.1980 -9.1600 116° Southeast 515 593 34,000  Level FlightAware ADS-B
Mon 05:46:25 AM 43.1660 -9.0720 116° Southeast 516 594 34,000  Level FlightAware ADS-B
Mon 05:47:00 AM 43.1290 -8.9730 117° Southeast 517 595 34,000  Level FlightAware ADS-B
Mon 05:47:35 AM 43.0910 -8.8680 116° Southeast 519 597 34,000  Level FlightAware ADS-B
Mon 05:48:10 AM 43.0530 -8.7650 117° Southeast 519 597 34,000  Level FlightAware ADS-B
Mon 05:48:45 AM 43.0150 -8.6620 117° Southeast 520 598 34,000  Level FlightAware ADS-B
Mon 05:49:20 AM 42.9770 -8.5600 117° Southeast 521 600 34,000  Level FlightAware ADS-B
Mon 05:50:00 AM 42.9370 -8.4400 114° Southeast 517 595 34,000  Level FlightAware ADS-B
Mon 05:50:30 AM 42.9220 -8.3490 103° East 513 590 34,000  Level FlightAware ADS-B
Mon 05:51:05 AM 42.9140 -8.2460 96° East 514 592 34,000  Level FlightAware ADS-B
Mon 05:51:45 AM 42.9070 -8.1100 94° East 514 592 34,000  Level FlightAware ADS-B
Mon 05:52:15 AM 42.9010 -8.0130 95° East 514 592 34,000  Level FlightAware ADS-B
Mon 05:52:55 AM 42.8930 -7.8780 95° East 516 594 34,000  Level FlightAware ADS-B
Mon 05:53:30 AM 42.8850 -7.7640 95° East 517 595 34,000  Level FlightAware ADS-B
Mon 05:54:01 AM 42.8780 -7.6640 95° East 517 595 34,000  Level FlightAware ADS-B
Mon 05:54:36 AM 42.8710 -7.5540 95° East 518 596 34,000  Level FlightAware ADS-B
Mon 05:55:15 AM 42.8620 -7.4330 96° East 520 598 34,000  Level FlightAware ADS-B
Mon 05:55:45 AM 42.8550 -7.3290 95° East 521 600 34,000  Level FlightAware ADS-B
Mon 05:56:20 AM 42.8470 -7.2110 95° East 523 602 34,000  Level FlightAware ADS-B
Mon 05:57:00 AM 42.8380 -7.0830 95° East 525 604 34,000  Level FlightAware ADS-B
Mon 05:57:36 AM 42.8290 -6.9710 96° East 527 606 34,000  Level FlightAware ADS-B
Mon 05:58:06 AM 42.8210 -6.8690 96° East 528 608 34,000  Level FlightAware ADS-B
Mon 05:58:45 AM 42.8110 -6.7330 96° East 528 608 34,000  Level FlightAware ADS-B
Mon 05:59:20 AM 42.8030 -6.6200 95° East 528 608 34,000  Level FlightAware ADS-B
Mon 05:59:55 AM 42.7940 -6.5080 96° East 528 608 34,000  Level FlightAware ADS-B
Mon 06:00:30 AM 42.7850 -6.3890 96° East 531 611 34,000  Level FlightAware ADS-B
Mon 06:01:01 AM 42.7770 -6.2900 96° East 532 612 34,000  Level FlightAware ADS-B
Mon 06:01:36 AM 42.7670 -6.1700 96° East 533 613 34,000  Level FlightAware ADS-B
Mon 06:02:16 AM 42.7570 -6.0330 96° East 534 615 34,000  Level FlightAware ADS-B
Mon 06:02:46 AM 42.7480 -5.9330 97° East 535 616 34,000  Level FlightAware ADS-B
Mon 06:03:21 AM 42.7380 -5.8160 97° East 537 618 34,000  Level FlightAware ADS-B
Mon 06:04:01 AM 42.7270 -5.6810 96° East 537 618 34,000  Level FlightAware ADS-B
Mon 06:04:31 AM 42.7180 -5.5810 97° East 539 620 34,000  Level FlightAware ADS-B
Mon 06:05:07 AM 42.7080 -5.4630 97° East 540 621 34,000  Level FlightAware ADS-B
Mon 06:05:46 AM 42.6960 -5.3290 97° East 540 621 34,000  Level FlightAware ADS-B
Mon 06:06:16 AM 42.6880 -5.2320 96° East 538 619 34,000  Level FlightAware ADS-B
Mon 06:06:51 AM 42.6770 -5.1110 97° East 535 616 34,000  Level FlightAware ADS-B
Mon 06:07:31 AM 42.6660 -4.9880 97° East 533 613 34,000  Level FlightAware ADS-B
Mon 06:08:00 AM 42.6560 -4.8820 97° East 531 611 34,000  Level FlightAware ADS-B
Mon 06:08:35 AM 42.6450 -4.7670 97° East 532 612 34,000  Level FlightAware ADS-B
Mon 06:09:15 AM 42.6330 -4.6380 97° East 531 611 34,000  Level FlightAware ADS-B
Mon 06:09:45 AM 42.6240 -4.5450 97° East 532 612 34,000  Level FlightAware ADS-B
Mon 06:10:20 AM 42.6130 -4.4190 97° East 531 611 34,000  Level FlightAware ADS-B
Mon 06:10:55 AM 42.6010 -4.3040 98° East 529 609 34,000  Level FlightAware ADS-B
Mon 06:11:35 AM 42.5890 -4.1790 97° East 527 606 34,000  Level FlightAware ADS-B
Mon 06:12:07 AM 42.5790 -4.0750 97° East 528 608 34,000  Level FlightAware ADS-B
Mon 06:12:45 AM 42.5660 -3.9430 98° East 527 606 34,000  Level FlightAware ADS-B
Mon 06:13:15 AM 42.5560 -3.8450 98° East 527 606 34,000  Level FlightAware ADS-B
Mon 06:13:50 AM 42.5450 -3.7370 98° East 527 606 34,000  Level FlightAware ADS-B
Mon 06:14:25 AM 42.5320 -3.6160 98° East 527 606 34,000  Level FlightAware ADS-B
Mon 06:15:00 AM 42.5200 -3.5020 98° East 526 605 34,000  Level FlightAware ADS-B
Mon 06:15:40 AM 42.5060 -3.3720 98° East 527 606 34,000  Level FlightAware ADS-B
Mon 06:16:15 AM 42.4950 -3.2610 98° East 527 606 34,000  Level FlightAware ADS-B
Mon 06:16:45 AM 42.4840 -3.1590 98° East 529 609 34,000  Level FlightAware ADS-B
Mon 06:17:25 AM 42.4700 -3.0310 98° East 531 611 34,000  Level FlightAware ADS-B
Mon 06:18:05 AM 42.4530 -2.8970 100° East 533 613 34,000  Level FlightAware ADS-B
Mon 06:18:40 AM 42.4330 -2.7830 103° East 533 613 34,000  Level FlightAware ADS-B
Mon 06:19:15 AM 42.4130 -2.6840 105° East 534 615 34,000  Level FlightAware ADS-B
Mon 06:19:49 AM 42.3890 -2.5680 106° East 534 615 34,000  Level FlightAware ADS-B
Mon 06:20:24 AM 42.3670 -2.4600 105° East 534 615 34,000  Level FlightAware ADS-B
Mon 06:21:00 AM 42.3410 -2.3350 106° East 533 613 34,000  Level FlightAware ADS-B
Mon 06:21:35 AM 42.3180 -2.2290 106° East 533 613 34,000  Level FlightAware ADS-B
Mon 06:22:15 AM 42.2900 -2.0950 106° East 534 615 34,000  Level FlightAware ADS-B
Mon 06:22:51 AM 42.2640 -1.9760 106° East 535 616 34,000  Level FlightAware ADS-B
Mon 06:23:24 AM 42.2420 -1.8730 106° East 536 617 34,000  Level FlightAware ADS-B
Mon 06:24:01 AM 42.2170 -1.7540 106° East 538 619 34,000  Level FlightAware ADS-B
Mon 06:24:37 AM 42.1920 -1.6380 106° East 540 621 34,000  Level FlightAware ADS-B
Mon 06:25:12 AM 42.1670 -1.5250 107° East 542 624 34,000  Level FlightAware ADS-B
Mon 06:25:47 AM 42.1420 -1.4120 107° East 543 625 34,000  Level FlightAware ADS-B
Mon 06:26:21 AM 42.1180 -1.2980 106° East 545 627 34,000  Level FlightAware ADS-B
Mon 06:26:58 AM 42.0910 -1.1810 107° East 547 629 34,000  Level FlightAware ADS-B
Mon 06:27:35 AM 42.0640 -1.0600 107° East 549 632 34,000  Level FlightAware ADS-B
Mon 06:28:07 AM 42.0410 -0.9520 106° East 552 635 34,000  Level FlightAware ADS-B
Mon 06:28:40 AM 42.0170 -0.8470 107° East 551 634 34,000  Level FlightAware ADS-B
Mon 06:29:19 AM 41.9880 -0.7150 106° East 553 636 34,000  Level FlightAware ADS-B
Mon 06:29:51 AM 41.9640 -0.6100 107° East 553 636 34,000  Level FlightAware ADS-B
Mon 06:30:28 AM 41.9360 -0.4890 107° East 554 638 34,000  Level FlightAware ADS-B
Mon 06:31:05 AM 41.9080 -0.3710 108° East 554 638 34,000  Level FlightAware ADS-B
Mon 06:31:36 AM 41.8850 -0.2660 106° East 554 638 34,000  Level FlightAware ADS-B
Mon 06:32:13 AM 41.8570 -0.1470 107° East 554 638 34,000  Level FlightAware ADS-B
Mon 06:32:49 AM 41.8290 -0.0260 107° East 555 639 34,000  Level FlightAware ADS-B
Mon 06:33:24 AM 41.8030 0.0860 107° East 554 638 34,000  Level FlightAware ADS-B
Mon 06:33:56 AM 41.7780 0.1930 107° East 552 635 34,000  Level FlightAware ADS-B
Mon 06:34:33 AM 41.7490 0.3130 108° East 549 632 34,000  Level FlightAware ADS-B
Mon 06:35:07 AM 41.7230 0.4230 108° East 548 631 34,000  Level FlightAware ADS-B
Mon 06:35:40 AM 41.6980 0.5300 107° East 548 631 34,000  Level FlightAware ADS-B
Mon 06:36:17 AM 41.6690 0.6490 108° East 546 628 34,000  Level FlightAware ADS-B
Mon 06:36:52 AM 41.6410 0.7610 108° East 543 625 34,000  Level FlightAware ADS-B
Mon 06:37:28 AM 41.6110 0.8750 109° East 543 625 34,000  Level FlightAware ADS-B
Mon 06:38:01 AM 41.5840 0.9760 110° East 541 623 34,000  Level FlightAware ADS-B
Mon 06:38:36 AM 41.5540 1.0890 109° East 540 621 34,000  Level FlightAware ADS-B
Mon 06:39:13 AM 41.5250 1.2060 108° East 542 624 34,000  Level FlightAware ADS-B
Mon 06:39:49 AM 41.4990 1.3200 107° East 541 623 34,000  Level FlightAware ADS-B
Mon 06:40:22 AM 41.4750 1.4260 107° East 541 623 34,000  Level FlightAware ADS-B
Mon 06:40:57 AM 41.4490 1.5380 107° East 541 623 34,000  Level FlightAware ADS-B
Mon 06:41:34 AM 41.4220 1.6550 107° East 540 621 34,000  Level FlightAware ADS-B
Mon 06:42:08 AM 41.3960 1.7590 108° East 539 620 34,000  Level FlightAware ADS-B
Mon 06:42:40 AM 41.3700 1.8630 108° East 538 619 34,000  Level FlightAware ADS-B
Mon 06:43:13 AM 41.3440 1.9630 109° East 539 620 34,000  Level FlightAware ADS-B
Mon 06:43:52 AM 41.3130 2.0890 108° East 541 623 34,000  Level FlightAware ADS-B
Mon 06:44:27 AM 41.2900 2.2020 105° East 545 627 34,000  Level FlightAware ADS-B
Mon 06:45:06 AM 41.2700 2.3260 102° East 545 627 34,000  Level FlightAware ADS-B
Mon 06:45:36 AM 41.2540 2.4280 102° East 546 628 34,000  Level FlightAware ADS-B
Mon 06:46:13 AM 41.2340 2.5490 102° East 547 629 34,000  Level FlightAware ADS-B
Mon 06:46:48 AM 41.2160 2.6610 102° East 546 628 34,000  Level FlightAware ADS-B
Mon 06:47:25 AM 41.1950 2.7820 103° East 548 631 34,000  Level FlightAware ADS-B
Mon 06:47:57 AM 41.1770 2.8870 103° East 546 628 34,000  Level FlightAware ADS-B
Mon 06:48:32 AM 41.1570 3.0010 103° East 545 627 34,000 269 Level FlightAware ADS-B
Mon 06:49:04 AM 41.1390 3.1090 102° East 547 629 34,300 1,130 Climbing FlightAware ADS-B
Mon 06:49:41 AM 41.1180 3.2290 103° East 544 626 35,300 1,378 Climbing FlightAware ADS-B
Mon 06:50:18 AM 41.0970 3.3460 103° East 542 624 36,000 583 Climbing FlightAware ADS-B
Mon 06:50:53 AM 41.0780 3.4550 103° East 540 621 36,000  Level FlightAware ADS-B
Mon 06:51:30 AM 41.0560 3.5800 103° East 538 619 36,000  Level FlightAware ADS-B
Mon 06:52:06 AM 41.0360 3.6920 103° East 536 617 36,000  Level FlightAware ADS-B
Mon 06:52:46 AM 41.0120 3.8200 104° East 535 616 36,000  Level FlightAware ADS-B
Mon 06:53:20 AM 40.9930 3.9310 103° East 533 613 36,000  Level FlightAware ADS-B
Mon 06:53:54 AM 40.9740 4.0320 104° East 531 611 36,000  Level FlightAware ADS-B
Mon 06:54:30 AM 40.9530 4.1520 103° East 531 611 36,000  Level FlightAware ADS-B
Mon 06:55:06 AM 40.9320 4.2660 104° East 531 611 36,000  Level FlightAware ADS-B
Mon 06:55:38 AM 40.9130 4.3640 104° East 532 612 36,000  Level FlightAware ADS-B
Mon 06:56:14 AM 40.8920 4.4800 103° East 532 612 36,000  Level FlightAware ADS-B
Mon 06:56:48 AM 40.8740 4.5780 104° East 534 615 36,000  Level FlightAware ADS-B
Mon 06:57:28 AM 40.8550 4.7000 102° East 538 619 36,000  Level FlightAware ADS-B
Mon 06:58:08 AM 40.8400 4.8100 100° East 538 619 36,000  Level FlightAware ADS-B
Mon 06:58:44 AM 40.8270 4.9100 100° East 538 619 36,000  Level FlightAware ADS-B
Mon 06:59:20 AM 40.8140 5.0090 100° East 538 619 36,000  Level FlightAware ADS-B
Mon 06:59:57 AM 40.8000 5.1110 100° East 538 619 36,000  Level FlightAware ADS-B
Mon 07:00:33 AM 40.8190 5.2960 82° East 36,000  Level FlightAware ADS-B
Mon 07:03:00 AM 40.7514 5.7519 101° East  Level Estimated
Mon 07:04:00 AM 40.7232 5.9377 101° East  Level Estimated
Mon 07:05:00 AM 40.6948 6.1234 101° East  Level Estimated
Mon 07:06:00 AM 40.6661 6.3089 101° East  Level Estimated
Mon 07:07:00 AM 40.6371 6.4943 102° East  Level Estimated
Mon 07:08:00 AM 40.6077 6.6795 102° East  Level Estimated
Mon 07:09:00 AM 40.5781 6.8645 102° East  Level Estimated
Mon 07:10:00 AM 40.5482 7.0493 102° East  Level Estimated
Mon 07:10:18 AM 40.6980 7.3000 102° East 556 640 36,000  Level FlightAware ADS-B
Mon 07:11:03 AM 40.6880 7.4340 96° East 556 640 36,000  Level FlightAware ADS-B
Mon 07:11:52 AM 40.6790 7.5750 95° East 556 640 36,000  Level FlightAware ADS-B
Mon 07:12:23 AM 40.6680 7.7220 96° East 559 643 36,000  Level FlightAware ADS-B
Mon 07:13:00 AM 40.6590 7.8470 95° East 559 643 36,000  Level FlightAware ADS-B
Mon 07:13:37 AM 40.6710 7.9680 83° East 561 646 36,000 338 Level FlightAware ADS-B
Mon 07:14:11 AM 40.6990 8.0750 71° East 561 646 36,400 870 Climbing FlightAware ADS-B
Mon 07:14:46 AM 40.7300 8.1980 72° East 561 646 37,000 537 Climbing FlightAware ADS-B
Mon 07:15:18 AM 40.7550 8.2940 71° East 560 644 37,000  Level FlightAware ADS-B
Mon 07:15:54 AM 40.7870 8.4170 71° East 558 642 37,000  Level FlightAware ADS-B
Mon 07:16:27 AM 40.8110 8.5170 72° East 558 642 37,000  Level FlightAware ADS-B
Mon 07:17:03 AM 40.8270 8.6340 80° East 559 643 37,000  Level FlightAware ADS-B
Mon 07:17:38 AM 40.8330 8.7570 86° East 556 640 37,000  Level FlightAware ADS-B
Mon 07:18:13 AM 40.8380 8.8750 87° East 553 636 37,000  Level FlightAware ADS-B
Mon 07:18:48 AM 40.8430 8.9930 87° East 551 634 37,000  Level FlightAware ADS-B
Mon 07:19:23 AM 40.8470 9.1100 87° East 549 632 37,000  Level FlightAware ADS-B
Mon 07:19:58 AM 40.8510 9.2270 87° East 546 628 37,000  Level FlightAware ADS-B
Mon 07:20:33 AM 40.8540 9.3430 88° East 542 624 37,000  Level FlightAware ADS-B
Mon 07:21:13 AM 40.8580 9.4750 88° East 540 621 37,000  Level FlightAware ADS-B
Mon 07:21:53 AM 40.8620 9.6060 88° East 540 621 37,000  Level FlightAware ADS-B
Mon 07:22:28 AM 40.8650 9.7220 88° East 544 626 37,000  Level FlightAware ADS-B
Mon 07:22:58 AM 40.8680 9.8210 88° East 545 627 37,000  Level FlightAware ADS-B
Mon 07:23:33 AM 40.8710 9.9380 88° East 545 627 37,000  Level FlightAware ADS-B
Mon 07:24:13 AM 40.8750 10.0700 88° East 544 626 37,000  Level FlightAware ADS-B
Mon 07:24:48 AM 40.8780 10.1870 88° East 544 626 37,000  Level FlightAware ADS-B
Mon 07:25:18 AM 40.8800 10.2890 88° East 543 625 37,000  Level FlightAware ADS-B
Mon 07:25:58 AM 40.8830 10.4180 88° East 542 624 37,000  Level FlightAware ADS-B
Mon 07:26:29 AM 40.8850 10.5240 89° East 541 623 37,000  Level FlightAware ADS-B
Mon 07:27:08 AM 40.8880 10.6530 88° East 541 623 37,000  Level FlightAware ADS-B
Mon 07:27:40 AM 40.8900 10.7610 89° East 540 621 37,000  Level FlightAware ADS-B
Mon 07:28:16 AM 40.8920 10.8760 89° East 540 621 37,000  Level FlightAware ADS-B
Mon 07:28:50 AM 40.8950 10.9880 88° East 539 620 37,000  Level FlightAware ADS-B
Mon 07:29:28 AM 40.8970 11.1100 89° East 538 619 37,000  Level FlightAware ADS-B
Mon 07:30:03 AM 40.8980 11.2280 89° East 537 618 37,000  Level FlightAware ADS-B
Mon 07:30:34 AM 40.9000 11.3330 89° East 537 618 37,000  Level FlightAware ADS-B
Mon 07:31:12 AM 40.9010 11.4570 89° East 537 618 37,000  Level FlightAware ADS-B
Mon 07:31:54 AM 40.8870 11.5890 98° East 531 611 37,000  Level FlightAware ADS-B
Mon 07:32:28 AM 40.8570 11.6950 110° East 529 609 37,000  Level FlightAware ADS-B
Mon 07:33:03 AM 40.8260 11.7970 112° Southeast 528 608 37,000  Level FlightAware ADS-B
Mon 07:33:39 AM 40.7920 11.9040 113° Southeast 529 609 37,000  Level FlightAware ADS-B
Mon 07:34:14 AM 40.7580 12.0100 113° Southeast 526 605 37,000  Level FlightAware ADS-B
Mon 07:34:47 AM 40.7120 12.0930 126° Southeast 517 595 37,000  Level FlightAware ADS-B
Mon 07:35:23 AM 40.6600 12.1790 129° Southeast 517 595 37,000  Level FlightAware ADS-B
Mon 07:36:00 AM 40.6060 12.2710 128° Southeast 517 595 37,000  Level FlightAware ADS-B
Mon 07:36:34 AM 40.5590 12.3580 125° Southeast 520 598 37,000  Level FlightAware ADS-B
Mon 07:37:08 AM 40.5160 12.4450 123° Southeast 520 598 37,000  Level FlightAware ADS-B
Mon 07:37:42 AM 40.4720 12.5470 120° Southeast 523 602 37,000  Level FlightAware ADS-B
Mon 07:38:21 AM 40.4360 12.6580 113° Southeast 525 604 37,000  Level FlightAware ADS-B
Mon 07:39:00 AM 40.4000 12.7730 112° Southeast 527 606 37,000  Level FlightAware ADS-B
Mon 07:39:36 AM 40.3660 12.8830 112° Southeast 528 608 37,000  Level FlightAware ADS-B
Mon 07:40:10 AM 40.3350 12.9840 112° Southeast 528 608 37,000  Level FlightAware ADS-B
Mon 07:40:46 AM 40.3030 13.0910 111° Southeast 529 609 37,000  Level FlightAware ADS-B
Mon 07:41:22 AM 40.2700 13.1980 112° Southeast 529 609 37,000  Level FlightAware ADS-B
Mon 07:41:58 AM 40.2370 13.3050 112° Southeast 530 610 37,000  Level FlightAware ADS-B
Mon 07:42:30 AM 40.2080 13.3970 112° Southeast 531 611 37,000  Level FlightAware ADS-B
Mon 07:43:06 AM 40.1750 13.5080 111° Southeast 532 612 37,000  Level FlightAware ADS-B
Mon 07:43:38 AM 40.1470 13.6000 112° Southeast 531 611 37,000  Level FlightAware ADS-B
Mon 07:44:10 AM 40.1160 13.6950 113° Southeast 531 611 37,000  Level FlightAware ADS-B
Mon 07:44:42 AM 40.0860 13.7930 112° Southeast 531 611 37,000  Level FlightAware ADS-B
Mon 07:45:18 AM 40.0530 13.9000 112° Southeast 531 611 37,000  Level FlightAware ADS-B
Mon 07:45:56 AM 40.0170 14.0120 113° Southeast 532 612 37,000  Level FlightAware ADS-B
Mon 07:46:28 AM 39.9880 14.1070 112° Southeast 532 612 37,000  Level FlightAware ADS-B
Mon 07:47:04 AM 39.9540 14.2110 113° Southeast 533 613 37,000  Level FlightAware ADS-B
Mon 07:47:40 AM 39.9210 14.3180 112° Southeast 533 613 37,000  Level FlightAware ADS-B
Mon 07:48:12 AM 39.8900 14.4160 112° Southeast 532 612 37,000  Level FlightAware ADS-B
Mon 07:48:48 AM 39.8560 14.5220 113° Southeast 532 612 37,000  Level FlightAware ADS-B
Mon 07:49:24 AM 39.8220 14.6250 113° Southeast 532 612 37,000  Level FlightAware ADS-B
Mon 07:49:59 AM 39.7900 14.7260 112° Southeast 532 612 37,000  Level FlightAware ADS-B
Mon 07:50:35 AM 39.7540 14.8340 113° Southeast 531 611 37,000  Level FlightAware ADS-B
Mon 07:51:07 AM 39.7240 14.9280 113° Southeast 530 610 37,000  Level FlightAware ADS-B
Mon 07:51:41 AM 39.6910 15.0310 113° Southeast 531 611 37,000  Level FlightAware ADS-B
Mon 07:52:19 AM 39.6550 15.1420 113° Southeast 531 611 37,000  Level FlightAware ADS-B
Mon 07:52:56 AM 39.6200 15.2480 113° Southeast 530 610 37,000  Level FlightAware ADS-B
Mon 07:53:27 AM 39.5920 15.3320 113° Southeast 529 609 37,000  Level FlightAware ADS-B
Mon 07:54:01 AM 39.5590 15.4310 113° Southeast 528 608 37,000  Level FlightAware ADS-B
Mon 07:54:39 AM 39.5220 15.5410 114° Southeast 527 606 37,000  Level FlightAware ADS-B
Mon 07:55:15 AM 39.4850 15.6550 113° Southeast 528 608 37,000  Level FlightAware ADS-B
Mon 07:55:51 AM 39.4530 15.7600 112° Southeast 528 608 37,000  Level FlightAware ADS-B
Mon 07:56:21 AM 39.4290 15.8470 110° East 529 609 37,000  Level FlightAware ADS-B
Mon 07:57:01 AM 39.3960 15.9690 109° East 529 609 37,000  Level FlightAware ADS-B
Mon 07:57:37 AM 39.3680 16.0700 110° East 528 608 37,000  Level FlightAware ADS-B
Mon 07:58:09 AM 39.3420 16.1650 109° East 526 605 37,000  Level FlightAware ADS-B
Mon 07:58:43 AM 39.3130 16.2710 109° East 525 604 37,000  Level FlightAware ADS-B
Mon 07:59:21 AM 39.2820 16.3830 110° East 522 601 37,000  Level FlightAware ADS-B
Mon 07:59:53 AM 39.2560 16.4760 110° East 520 598 37,000  Level FlightAware ADS-B
Mon 08:00:31 AM 39.2250 16.5870 110° East 517 595 37,000  Level FlightAware ADS-B
Mon 08:01:03 AM 39.2000 16.6770 110° East 516 594 37,000  Level FlightAware ADS-B
Mon 08:01:39 AM 39.1700 16.7840 110° East 516 594 37,000  Level FlightAware ADS-B
Mon 08:02:15 AM 39.1400 16.8880 110° East 519 597 37,000  Level FlightAware ADS-B
Mon 08:02:51 AM 39.1120 16.9900 109° East 520 598 37,000  Level FlightAware ADS-B
Mon 08:03:23 AM 39.0840 17.0850 111° Southeast 519 597 37,000  Level FlightAware ADS-B
Mon 08:03:59 AM 39.0540 17.1900 110° East 519 597 37,000  Level FlightAware ADS-B
Mon 08:04:25 AM 39.0330 17.2650 110° East 519 597 37,000  Level FlightAware ADS-B
Mon 08:05:01 AM 39.0030 17.3690 110° East 519 597 37,000  Level FlightAware ADS-B
Mon 08:05:37 AM 38.9730 17.4700 111° Southeast 519 597 37,000  Level FlightAware ADS-B
Mon 08:06:15 AM 38.9410 17.5830 110° East 519 597 37,000  Level FlightAware ADS-B
Mon 08:06:47 AM 38.9140 17.6720 111° Southeast 519 597 37,000  Level FlightAware ADS-B
Mon 08:07:23 AM 38.8840 17.7790 110° East 520 598 37,000  Level FlightAware ADS-B
Mon 08:07:59 AM 38.8530 17.8830 111° Southeast 521 600 37,000  Level FlightAware ADS-B
Mon 08:08:29 AM 38.8280 17.9700 110° East 521 600 37,000  Level FlightAware ADS-B
Mon 08:09:07 AM 38.7950 18.0790 111° Southeast 521 600 37,000  Level FlightAware ADS-B
Mon 08:09:43 AM 38.7650 18.1810 111° Southeast 521 600 37,000  Level FlightAware ADS-B
Mon 08:10:20 AM 38.7330 18.2870 111° Southeast 522 601 37,000  Level FlightAware ADS-B
Mon 08:10:51 AM 38.7070 18.3770 110° East 522 601 37,000  Level FlightAware ADS-B
Mon 08:11:29 AM 38.6730 18.4890 111° Southeast 523 602 37,000  Level FlightAware ADS-B
Mon 08:12:01 AM 38.6460 18.5790 111° Southeast 523 602 37,000  Level FlightAware ADS-B
Mon 08:12:39 AM 38.6130 18.6910 111° Southeast 523 602 37,000  Level FlightAware ADS-B
Mon 08:13:13 AM 38.5830 18.7890 111° Southeast 524 603 37,000  Level FlightAware ADS-B
Mon 08:13:47 AM 38.5530 18.8850 112° Southeast 524 603 37,000  Level FlightAware ADS-B
Mon 08:14:19 AM 38.5270 18.9680 112° Southeast 525 604 37,000  Level FlightAware ADS-B
Mon 08:15:04 AM 38.4920 19.0970 109° East 527 606 37,000  Level FlightAware ADS-B
Mon 08:15:44 AM 38.4600 19.2180 109° East 528 608 37,000  Level FlightAware ADS-B
Mon 08:16:19 AM 38.4320 19.3310 108° East 527 606 37,000  Level FlightAware ADS-B
Mon 08:16:54 AM 38.4050 19.4340 108° East 528 608 37,000  Level FlightAware ADS-B
Mon 08:17:29 AM 38.3780 19.5310 110° East 529 609 37,000  Level FlightAware ADS-B
Mon 08:18:04 AM 38.3500 19.6400 108° East 528 608 37,000  Level FlightAware ADS-B
Mon 08:18:40 AM 38.3220 19.7400 110° East 528 608 37,000  Level FlightAware ADS-B
Mon 08:19:19 AM 38.2900 19.8600 109° East 529 609 37,000  Level FlightAware ADS-B
Mon 08:19:49 AM 38.2690 19.9370 109° East 529 609 37,000  Level FlightAware ADS-B
Mon 08:20:24 AM 38.2380 20.0480 110° East 530 610 37,000  Level FlightAware ADS-B
Mon 08:20:59 AM 38.2100 20.1540 109° East 530 610 37,000  Level FlightAware ADS-B
Mon 08:21:34 AM 38.1820 20.2540 110° East 531 611 37,000  Level FlightAware ADS-B
Mon 08:22:09 AM 38.1530 20.3600 109° East 531 611 37,000  Level FlightAware ADS-B
Mon 08:22:49 AM 38.1190 20.4770 110° East 530 610 37,000  Level FlightAware ADS-B
Mon 08:23:19 AM 38.0900 20.5630 113° Southeast 530 610 37,000  Level FlightAware ADS-B
Mon 08:23:54 AM 38.0540 20.6610 115° Southeast 530 610 37,000  Level FlightAware ADS-B
Mon 08:24:34 AM 38.0110 20.7740 116° Southeast 530 610 37,000  Level FlightAware ADS-B
Mon 08:25:04 AM 37.9810 20.8550 115° Southeast 530 610 37,000  Level FlightAware ADS-B
Mon 08:25:39 AM 37.9420 20.9560 116° Southeast 530 610 37,000  Level FlightAware ADS-B
Mon 08:26:14 AM 37.9050 21.0530 116° Southeast 530 610 37,000  Level FlightAware ADS-B
Mon 08:26:54 AM 37.8620 21.1650 116° Southeast 530 610 37,000  Level FlightAware ADS-B
Mon 08:27:24 AM 37.8310 21.2490 115° Southeast 531 611 37,000  Level FlightAware ADS-B
Mon 08:27:59 AM 37.7930 21.3470 116° Southeast 532 612 37,000  Level FlightAware ADS-B
Mon 08:28:34 AM 37.7550 21.4410 117° Southeast 532 612 37,000  Level FlightAware ADS-B
Mon 08:29:14 AM 37.7110 21.5560 116° Southeast 532 612 37,000  Level FlightAware ADS-B
Mon 08:29:44 AM 37.6790 21.6400 116° Southeast 533 613 37,000  Level FlightAware ADS-B
Mon 08:30:19 AM 37.6410 21.7370 116° Southeast 533 613 37,000  Level FlightAware ADS-B
Mon 08:30:54 AM 37.6050 21.8290 116° Southeast 534 615 37,000  Level FlightAware ADS-B
Mon 08:31:34 AM 37.5590 21.9470 116° Southeast 535 616 37,000  Level FlightAware ADS-B
Mon 08:32:04 AM 37.5260 22.0300 117° Southeast 535 616 37,000  Level FlightAware ADS-B
Mon 08:32:44 AM 37.4870 22.1320 116° Southeast 535 616 37,000  Level FlightAware ADS-B
Mon 08:33:15 AM 37.4520 22.2180 117° Southeast 533 613 37,000  Level FlightAware ADS-B
Mon 08:33:59 AM 37.4020 22.3500 115° Southeast 539 620 37,000  Level FlightAware ADS-B
Mon 08:34:34 AM 37.3700 22.4550 111° Southeast 540 621 37,000  Level FlightAware ADS-B
Mon 08:35:04 AM 37.3450 22.5410 110° East 540 621 37,000  Level FlightAware ADS-B
Mon 08:35:48 AM 37.3080 22.6710 110° East 540 621 37,000  Level FlightAware ADS-B
Mon 08:36:28 AM 37.2720 22.7920 110° East 539 620 37,000  Level FlightAware ADS-B
Mon 08:36:59 AM 37.2450 22.8840 110° East 539 620 37,000  Level FlightAware ADS-B
Mon 08:37:34 AM 37.2150 22.9840 111° Southeast 539 620 37,000  Level FlightAware ADS-B
Mon 08:38:09 AM 37.1850 23.0870 110° East 540 621 37,000  Level FlightAware ADS-B
Mon 08:38:44 AM 37.1540 23.1900 111° Southeast 539 620 37,000  Level FlightAware ADS-B
Mon 08:39:19 AM 37.1230 23.2920 111° Southeast 538 619 37,000  Level FlightAware ADS-B
Mon 08:39:49 AM 37.0960 23.3830 110° East 538 619 37,000  Level FlightAware ADS-B
Mon 08:40:32 AM 37.0570 23.5120 111° Southeast 541 623 37,000  Level FlightAware ADS-B
Mon 08:41:08 AM 37.0250 23.6180 111° Southeast 541 623 37,000  Level FlightAware ADS-B
Mon 08:41:39 AM 36.9980 23.7050 111° Southeast 541 623 37,000  Level FlightAware ADS-B
Mon 08:42:14 AM 36.9670 23.8110 110° East 542 624 37,000  Level FlightAware ADS-B
Mon 08:42:50 AM 36.9340 23.9160 111° Southeast 542 624 37,000  Level FlightAware ADS-B
Mon 08:43:26 AM 36.9010 24.0220 111° Southeast 543 625 37,000  Level FlightAware ADS-B
Mon 08:44:02 AM 36.8700 24.1240 111° Southeast 543 625 37,000  Level FlightAware ADS-B
Mon 08:44:38 AM 36.8370 24.2320 111° Southeast 544 626 37,000  Level FlightAware ADS-B
Mon 08:45:10 AM 36.8080 24.3260 111° Southeast 544 626 37,000  Level FlightAware ADS-B
Mon 08:45:46 AM 36.7760 24.4280 111° Southeast 543 625 37,000  Level FlightAware ADS-B
Mon 08:46:22 AM 36.7430 24.5330 111° Southeast 543 625 37,000  Level FlightAware ADS-B
Mon 08:46:54 AM 36.7110 24.6250 113° Southeast 542 624 37,000  Level FlightAware ADS-B
Mon 08:47:30 AM 36.6720 24.7290 115° Southeast 541 623 37,000  Level FlightAware ADS-B
Mon 08:48:06 AM 36.6350 24.8280 115° Southeast 541 623 37,000  Level FlightAware ADS-B
Mon 08:48:42 AM 36.5970 24.9330 114° Southeast 540 621 37,000  Level FlightAware ADS-B
Mon 08:49:14 AM 36.5630 25.0240 115° Southeast 541 623 37,000  Level FlightAware ADS-B
Mon 08:49:51 AM 36.5270 25.1230 114° Southeast 541 623 37,000  Level FlightAware ADS-B
Mon 08:50:26 AM 36.4880 25.2270 115° Southeast 542 624 37,000  Level FlightAware ADS-B
Mon 08:51:02 AM 36.4520 25.3270 114° Southeast 543 625 37,000  Level FlightAware ADS-B
Mon 08:51:34 AM 36.4180 25.4170 115° Southeast 544 626 37,000  Level FlightAware ADS-B
Mon 08:52:12 AM 36.3780 25.5250 115° Southeast 544 626 37,000  Level FlightAware ADS-B
Mon 08:52:44 AM 36.3440 25.6160 115° Southeast 545 627 37,000  Level FlightAware ADS-B
Mon 08:53:20 AM 36.3080 25.7150 114° Southeast 546 628 37,000  Level FlightAware ADS-B
Mon 08:53:56 AM 36.2670 25.8230 115° Southeast 546 628 37,000  Level FlightAware ADS-B
Mon 08:54:32 AM 36.2290 25.9250 115° Southeast 547 629 37,000  Level FlightAware ADS-B
Mon 08:55:06 AM 36.1920 26.0220 115° Southeast 548 631 37,000  Level FlightAware ADS-B
Mon 08:55:42 AM 36.1530 26.1210 116° Southeast 548 631 37,000  Level FlightAware ADS-B
Mon 08:56:12 AM 36.1210 26.2060 115° Southeast 549 632 37,000  Level FlightAware ADS-B
Mon 08:56:50 AM 36.0820 26.3120 114° Southeast 550 633 37,000  Level FlightAware ADS-B
Mon 08:57:28 AM 36.0380 26.4250 116° Southeast 551 634 37,000  Level FlightAware ADS-B
Mon 08:58:00 AM 36.0040 26.5130 116° Southeast 551 634 37,000  Level FlightAware ADS-B
Mon 08:58:36 AM 35.9640 26.6180 115° Southeast 552 635 37,000  Level FlightAware ADS-B
Mon 08:59:12 AM 35.9240 26.7210 116° Southeast 552 635 37,000  Level FlightAware ADS-B
Mon 08:59:42 AM 35.8920 26.8030 116° Southeast 553 636 37,000  Level FlightAware ADS-B
Mon 09:00:22 AM 35.8550 26.9010 115° Southeast 553 636 37,000  Level FlightAware ADS-B
Mon 09:00:56 AM 35.8150 27.0030 116° Southeast 553 636 37,000  Level FlightAware ADS-B
Mon 09:01:34 AM 35.7800 27.0950 115° Southeast 553 636 37,000  Level FlightAware ADS-B
Mon 09:02:10 AM 35.7470 27.1830 115° Southeast 553 636 37,000  Level FlightAware ADS-B
Mon 09:02:46 AM 35.7130 27.2700 116° Southeast 553 636 37,000  Level FlightAware ADS-B
Mon 09:03:23 AM 35.6790 27.3600 115° Southeast 553 636 37,000  Level FlightAware ADS-B
Mon 09:03:59 AM 35.6460 27.4470 115° Southeast 553 636 37,000  Level FlightAware ADS-B
Mon 09:04:43 AM 35.5610 27.6450 118° Southeast 548 631 37,000  Level FlightAware ADS-B
Mon 09:05:20 AM 35.5260 27.7330 116° Southeast 548 631 37,000  Level FlightAware ADS-B
Mon 09:05:56 AM 35.4920 27.8180 116° Southeast 548 631 37,000  Level FlightAware ADS-B
Mon 09:06:32 AM 35.4580 27.9040 116° Southeast 548 631 37,000  Level FlightAware ADS-B
Mon 09:07:08 AM 35.4240 27.9900 116° Southeast 548 631 37,000  Level FlightAware ADS-B
Mon 09:07:42 AM 35.3560 28.1510 117° Southeast 548 631 37,000  Level FlightAware ADS-B
Mon 09:08:14 AM 35.3190 28.2430 116° Southeast 547 629 37,000  Level FlightAware ADS-B
Mon 09:08:48 AM 35.2810 28.3370 116° Southeast 548 631 37,000  Level FlightAware ADS-B
Mon 09:09:26 AM 35.2380 28.4400 117° Southeast 547 629 37,000  Level FlightAware ADS-B
Mon 09:10:02 AM 35.1970 28.5400 117° Southeast 547 629 37,000  Level FlightAware ADS-B
Mon 09:10:43 AM 35.1560 28.6430 116° Southeast 547 629 37,000  Level FlightAware ADS-B
Mon 09:11:18 AM 35.1120 28.7490 117° Southeast 546 628 37,000  Level FlightAware ADS-B
Mon 09:11:56 AM 35.0760 28.8350 117° Southeast 546 628 37,000  Level FlightAware ADS-B
Mon 09:12:35 AM 35.0230 28.9610 117° Southeast 544 626 37,000  Level FlightAware ADS-B
Mon 09:13:10 AM 34.9870 29.0460 117° Southeast 543 625 37,000  Level FlightAware ADS-B
Mon 09:14:04 AM 34.9320 29.1830 116° Southeast 543 625 37,000  Level FlightAware ADS-B
Mon 09:14:41 AM 34.8770 29.3090 118° Southeast 543 625 37,000  Level FlightAware ADS-B
Mon 09:15:16 AM 34.8430 29.3910 117° Southeast 542 624 37,000  Level FlightAware ADS-B
Mon 09:15:51 AM 34.7980 29.4980 117° Southeast 542 624 37,000  Level FlightAware ADS-B
Mon 09:16:27 AM 34.7560 29.5960 118° Southeast 542 624 37,000  Level FlightAware ADS-B
Mon 09:17:02 AM 34.7150 29.6910 118° Southeast 542 624 37,000  Level FlightAware ADS-B
Mon 09:17:38 AM 34.6740 29.7890 117° Southeast 543 625 37,000  Level FlightAware ADS-B
Mon 09:18:31 AM 34.6200 29.9170 117° Southeast 543 625 37,000  Level FlightAware ADS-B
Mon 09:19:07 AM 34.5870 30.0010 115° Southeast 543 625 37,000  Level FlightAware ADS-B
Mon 09:19:45 AM 34.5220 30.1300 121° Southeast 546 628 37,000  Level FlightAware ADS-B
Mon 09:20:19 AM 34.4780 30.2220 120° Southeast 546 628 37,000  Level FlightAware ADS-B
Mon 09:20:55 AM 34.4330 30.3180 120° Southeast 546 628 37,000  Level FlightAware ADS-B
Mon 09:21:30 AM 34.3910 30.4050 120° Southeast 546 628 37,000  Level FlightAware ADS-B
Mon 09:22:06 AM 34.3430 30.5050 120° Southeast 546 628 37,000  Level FlightAware ADS-B
Mon 09:22:40 AM 34.3000 30.5920 121° Southeast 546 628 37,000  Level FlightAware ADS-B
Mon 09:23:21 AM 34.2490 30.6970 120° Southeast 545 627 37,000  Level FlightAware ADS-B
Mon 09:24:06 AM 34.1910 30.8180 120° Southeast 544 626 37,000  Level FlightAware ADS-B
Mon 09:24:41 AM 34.1450 30.9120 121° Southeast 543 625 37,000  Level FlightAware ADS-B
Mon 09:25:11 AM 34.1060 30.9930 120° Southeast 542 624 37,000  Level FlightAware ADS-B
Mon 09:25:47 AM 34.0620 31.0810 121° Southeast 542 624 37,000  Level FlightAware ADS-B
Mon 09:26:25 AM 34.0120 31.1830 121° Southeast 541 623 37,000  Level FlightAware ADS-B
Mon 09:26:53 AM 33.9770 31.2530 121° Southeast 540 621 37,000  Level FlightAware ADS-B
Mon 09:27:37 AM 33.9190 31.3710 121° Southeast 539 620 37,000  Level FlightAware ADS-B
Mon 09:28:07 AM 33.8820 31.4460 121° Southeast 538 619 37,000  Level FlightAware ADS-B
Mon 09:28:42 AM 33.8370 31.5360 121° Southeast 536 617 37,000  Level FlightAware ADS-B
Mon 09:29:18 AM 33.7920 31.6280 120° Southeast 536 617 37,000  Level FlightAware ADS-B
Mon 09:29:52 AM 33.7480 31.7150 121° Southeast 537 618 37,000  Level FlightAware ADS-B
Mon 09:30:28 AM 33.7020 31.8070 121° Southeast 538 619 37,000  Level FlightAware ADS-B
Mon 09:31:02 AM 33.6580 31.8940 121° Southeast 536 617 37,000  Level FlightAware ADS-B
Mon 09:31:37 AM 33.6120 31.9860 121° Southeast 535 616 37,000  Level FlightAware ADS-B
Mon 09:32:12 AM 33.5690 32.0720 121° Southeast 534 615 37,000  Level FlightAware ADS-B
Mon 09:32:48 AM 33.5270 32.1560 121° Southeast 534 615 37,000  Level FlightAware ADS-B
Mon 09:33:23 AM 33.4780 32.2520 121° Southeast 533 613 37,000  Level FlightAware ADS-B
Mon 09:33:53 AM 33.4420 32.3230 121° Southeast 533 613 37,000  Level FlightAware ADS-B
Mon 09:34:34 AM 33.3880 32.4280 122° Southeast 532 612 37,000  Level FlightAware ADS-B
Mon 09:35:17 AM 33.3380 32.5260 121° Southeast 531 611 37,000 -68 Level FlightAware ADS-B
Mon 09:36:02 AM 33.2740 32.6520 121° Southeast 530 610 36,900 -815 Descending FlightAware ADS-B
Mon 09:36:38 AM 33.2310 32.7360 121° Southeast 525 604 35,900 -2,535 Descending FlightAware ADS-B
Mon 09:37:13 AM 33.1900 32.8160 121° Southeast 533 613 33,900 -3,887 Descending FlightAware ADS-B
Mon 09:37:49 AM 33.1380 32.9150 122° Southeast 539 620 31,300 -3,418 Descending FlightAware ADS-B
Mon 09:38:32 AM 33.0800 33.0280 121° Southeast 552 635 29,400 -2,692 Descending FlightAware ADS-B
Mon 09:39:07 AM 33.0310 33.1240 121° Southeast 549 632 27,800 -2,559 Descending FlightAware ADS-B
Mon 09:39:40 AM 32.9890 33.2050 122° Southeast 534 615 26,500 -2,435 Descending FlightAware ADS-B
Mon 09:40:16 AM 32.9410 33.2970 122° Southeast 534 615 25,000 -2,500 Descending FlightAware ADS-B
Mon 09:40:52 AM 32.8950 33.3850 122° Southeast 514 592 23,500 -2,417 Descending FlightAware ADS-B
Mon 09:41:28 AM 32.8490 33.4710 122° Southeast 508 585 22,100 -2,333 Descending FlightAware ADS-B
Mon 09:42:04 AM 32.8060 33.5530 122° Southeast 496 571 20,700 -2,294 Descending FlightAware ADS-B
Mon 09:42:36 AM 32.7670 33.6260 122° Southeast 482 555 19,500 -2,250 Descending FlightAware ADS-B
Mon 09:43:08 AM 32.7290 33.6990 122° Southeast 465 535 18,300 -2,167 Descending FlightAware ADS-B
Mon 09:43:48 AM 32.6850 33.7830 122° Southeast 455 524 16,900 -2,080 Descending FlightAware ADS-B
Mon 09:44:23 AM 32.6460 33.8560 122° Southeast 442 509 15,700 -2,028 Descending FlightAware ADS-B
Mon 09:44:59 AM 32.6080 33.9290 122° Southeast 429 494 14,500 -1,938 Descending FlightAware ADS-B
Mon 09:45:28 AM 32.5770 33.9880 122° Southeast 413 475 13,600 -1,853 Descending FlightAware ADS-B
Mon 09:46:07 AM 32.5400 34.0590 122° Southeast 392 451 12,400 -1,816 Descending FlightAware ADS-B
Mon 09:46:44 AM 32.5030 34.1260 123° Southeast 377 434 11,300 -1,565 Descending FlightAware ADS-B
Mon 09:47:16 AM 32.4700 34.1770 127° Southeast 357 411 10,600 -771 Descending FlightAware ADS-B
Mon 09:47:54 AM 32.4290 34.2260 135° Southeast 320 368 10,400 -333 Descending FlightAware ADS-B
Mon 09:48:28 AM 32.3950 34.2670 134° Southeast 294 338 10,200 -720 Descending FlightAware ADS-B
Mon 09:48:44 AM 32.3790 34.2850 136° Southeast 289 333 9,800 -1,350 Descending FlightAware ADS-B
Mon 09:49:08 AM 32.3570 34.3110 135° Southeast 289 333 9,300 -1,154 Descending FlightAware ADS-B
Mon 09:49:36 AM 32.3310 34.3420 135° Southeast 283 326 8,800 -1,019 Descending FlightAware ADS-B
Mon 09:50:01 AM 32.3100 34.3670 135° Southeast 281 323 8,400 -900 Descending FlightAware ADS-B
Mon 09:50:16 AM 32.2970 34.3820 136° Southeast 281 323 8,200 -900 Descending FlightAware ADS-B
Mon 09:50:41 AM 32.2710 34.4110 137° Southeast 278 320 7,800 -913 Descending FlightAware ADS-B
Mon 09:51:02 AM 32.2530 34.4320 135° Southeast 275 316 7,500 -900 Descending FlightAware ADS-B
Mon 09:51:21 AM 32.2360 34.4540 132° Southeast 275 316 7,200 -615 Descending FlightAware ADS-B
Mon 09:51:41 AM 32.2220 34.4740 130° Southeast 276 318 7,100 -439 Descending FlightAware ADS-B
Mon 09:52:02 AM 32.2070 34.5020 122° Southeast 274 315 6,900 -600 Descending FlightAware ADS-B
Mon 09:52:21 AM 32.1940 34.5290 120° Southeast 272 313 6,700 -522 Descending FlightAware ADS-B
Mon 09:52:48 AM 32.1790 34.5570 122° Southeast 271 312 6,500 -511 Descending FlightAware ADS-B
Mon 09:53:08 AM 32.1630 34.5870 122° Southeast 272 313 6,300 -615 Descending FlightAware ADS-B
Mon 09:53:27 AM 32.1480 34.6130 124° Southeast 271 312 6,100 -462 Descending FlightAware ADS-B
Mon 09:53:47 AM 32.1360 34.6360 122° Southeast 272 313 6,000 -533 Descending FlightAware ADS-B
Mon 09:54:12 AM 32.1190 34.6680 122° Southeast 261 300 5,700 -933 Descending FlightAware ADS-B
Mon 09:54:32 AM 32.1070 34.6920 121° Southeast 259 298 5,300 -800 Descending FlightAware ADS-B
Mon 09:54:57 AM 32.0910 34.7200 124° Southeast 265 305 5,100 -100 Descending FlightAware ADS-B
Mon 09:55:32 AM 32.0690 34.7610 122° Southeast 254 292 5,200  Climbing FlightAware ADS-B
Mon 09:55:52 AM 32.0520 34.7840 131° Southeast 238 274 5,100 -369 Descending FlightAware ADS-B
Mon 09:56:37 AM 32.0220 34.8190 135° Southeast 234 269 4,800 -375 Descending FlightAware ADS-B
Mon 09:56:56 AM 32.0040 34.8390 137° Southeast 234 269 4,700 -732 Descending FlightAware ADS-B
Mon 09:57:18 AM 31.9910 34.8540 136° Southeast 198 228 4,300 -490 Descending FlightAware ADS-B
Mon 09:57:45 AM 31.9760 34.8720 134° Southeast 198 228 4,300 -1,600 Level FlightAware ADS-B
Mon 09:58:03 AM 31.9910 34.8540 314° West 189 217 3,100 -2,308 Descending FlightAware ADS-B
Mon 09:58:24 AM 31.9780 34.9170 104° East 174 200 2,800 -789 Descending FlightAware ADS-B
Mon 09:58:41 AM 31.9810 34.9320 77° East 169 194 2,600 -833 Descending FlightAware ADS-B
Mon 09:59:00 AM 31.9850 34.9490 74° East 173 199 2,300 -900 Descending FlightAware ADS-B
Mon 09:59:21 AM 31.9960 34.9630 47° Northeast 165 190 2,000 -968 Descending FlightAware ADS-B
Mon 09:59:31 AM 32.0030 34.9640 North 162 186 1,800 -800 Descending FlightAware ADS-B
Mon 09:59:51 AM 32.0160 34.9610 349° North 153 176 1,600 -720 Descending FlightAware ADS-B
Mon 09:59:56 AM 32.0200 34.9590 337° Northwest 152 175 1,500 -194 Descending FlightAware ADS-B
Mon 10:00:22 AM 32.0350 34.9530 341° North 152 175 1,500  Level FlightAware ADS-B

Login

Don't have an account? Register now (free) for customized features, flight alerts, and more!